Time;durP1;ratioP1;P1;durP2;ratioP2;P2;SDS_P1;SDS_P2;PMS_P1;PMS_P2;Temp;Humidity;BMP_temperature;BMP_pressure;BME280_temperature;BME280_humidity;BME280_pressure;Samples;Min_cycle;Max_cycle;Signal;HPM_P1;HPM_P2
2023/09/01 00:01:16;;;;;;;65.35;29.13;;;9.70;99.90;;;;;;5047155;28;20071;-78
2023/09/01 00:04:13;;;;;;;73.82;32.15;;;9.70;99.90;;;;;;5034529;28;20044;-77
2023/09/01 00:06:39;;;;;;;76.47;33.25;;;9.70;99.90;;;;;;5051871;28;20499;-78
2023/09/01 00:09:06;;;;;;;79.50;32.75;;;9.70;99.90;;;;;;5044236;28;20813;-77
2023/09/01 00:11:33;;;;;;;75.63;33.72;;;9.60;99.90;;;;;;5051688;28;20667;-78
2023/09/01 00:14:00;;;;;;;71.30;33.85;;;9.70;99.90;;;;;;5050126;28;20131;-77
2023/09/01 00:16:26;;;;;;;83.13;35.92;;;9.80;99.90;;;;;;5049495;28;20050;-77
2023/09/01 00:18:53;;;;;;;60.92;30.98;;;9.70;99.90;;;;;;5049715;28;20045;-78
2023/09/01 00:21:20;;;;;;;69.68;31.20;;;9.50;99.90;;;;;;5043602;28;20094;-78
2023/09/01 00:23:46;;;;;;;67.90;30.95;;;9.50;99.90;;;;;;5045790;28;20044;-78
2023/09/01 00:26:13;;;;;;;70.50;32.85;;;9.70;99.90;;;;;;5050802;28;20607;-79
2023/09/01 00:28:42;;;;;;;94.03;38.55;;;9.60;99.90;;;;;;5048903;28;20071;-78
2023/09/01 00:31:09;;;;;;;91.72;38.55;;;9.80;99.90;;;;;;5049670;28;20040;-77
2023/09/01 00:33:36;;;;;;;86.43;37.47;;;9.90;99.90;;;;;;5042163;28;20043;-77
2023/09/01 00:36:03;;;;;;;92.18;40.90;;;9.90;99.90;;;;;;5054778;28;20044;-77
2023/09/01 00:38:32;;;;;;;92.18;40.13;;;9.90;99.90;;;;;;5052239;28;20056;-78
2023/09/01 00:40:58;;;;;;;99.53;42.08;;;9.90;99.90;;;;;;5043048;28;20108;-77
2023/09/01 00:43:25;;;;;;;101.85;41.10;;;10.00;99.90;;;;;;5045781;28;20106;-78
2023/09/01 00:45:52;;;;;;;93.18;41.20;;;10.00;99.90;;;;;;5045208;28;20052;-77
2023/09/01 00:48:20;;;;;;;99.65;40.97;;;10.00;99.90;;;;;;5035834;28;21836;-77
2023/09/01 00:50:49;;;;;;;88.60;41.72;;;10.10;99.90;;;;;;5051091;28;20047;-78
2023/09/01 00:53:18;;;;;;;96.05;41.53;;;10.10;99.90;;;;;;5031533;28;20049;-77
2023/09/01 00:55:45;;;;;;;106.05;42.35;;;10.00;99.90;;;;;;5048177;28;20049;-78
2023/09/01 00:58:12;;;;;;;87.07;39.88;;;9.80;99.90;;;;;;5033325;28;20044;-77
2023/09/01 01:00:39;;;;;;;90.82;39.20;;;9.80;99.90;;;;;;5045408;28;20112;-78
2023/09/01 01:03:09;;;;;;;90.03;38.95;;;9.90;99.90;;;;;;5050467;28;20037;-78
2023/09/01 01:05:51;;;;;;;92.47;39.70;;;9.90;99.90;;;;;;5041390;28;20148;-78
2023/09/01 01:08:23;;;;;;;76.25;37.20;;;9.90;99.90;;;;;;5055433;28;20117;-79
2023/09/01 01:11:01;;;;;;;115.03;44.55;;;9.90;99.90;;;;;;5047537;28;20052;-78
2023/09/01 01:13:34;;;;;;;90.53;41.63;;;10.10;99.90;;;;;;5047847;28;21023;-78
2023/09/01 01:16:02;;;;;;;99.83;41.27;;;10.00;99.90;;;;;;5044595;28;20048;-78
2023/09/01 01:18:32;;;;;;;95.15;39.80;;;9.80;99.90;;;;;;5023626;28;20052;-78
2023/09/01 01:21:08;;;;;;;93.47;36.90;;;9.90;99.90;;;;;;5048596;28;20048;-77
2023/09/01 01:23:36;;;;;;;93.03;39.30;;;9.90;99.90;;;;;;5045881;28;21541;-78
2023/09/01 01:26:04;;;;;;;90.68;38.10;;;9.80;99.90;;;;;;5063891;28;20055;-78
2023/09/01 01:28:31;;;;;;;99.45;40.35;;;9.70;99.90;;;;;;5049529;28;20799;-78
2023/09/01 01:30:57;;;;;;;101.20;39.78;;;9.70;99.90;;;;;;5045984;28;20041;-78
2023/09/01 01:33:30;;;;;;;102.00;40.50;;;9.70;99.90;;;;;;5049450;28;20636;-78
2023/09/01 01:36:44;;;;;;;88.05;39.20;;;9.60;99.90;;;;;;5062852;28;20049;-78
2023/09/01 01:39:17;;;;;;;83.30;38.17;;;9.50;99.90;;;;;;5030991;28;20052;-79
2023/09/01 01:41:52;;;;;;;90.25;34.40;;;9.50;99.90;;;;;;5029275;28;20588;-78
2023/09/01 01:44:26;;;;;;;82.03;33.67;;;9.50;99.90;;;;;;5041320;28;20063;-78
2023/09/01 01:46:54;;;;;;;76.10;34.08;;;9.40;99.90;;;;;;5064516;28;20043;-78
2023/09/01 01:49:21;;;;;;;67.22;32.08;;;9.50;99.90;;;;;;5041929;28;20513;-78
2023/09/01 01:51:49;;;;;;;80.78;33.60;;;9.50;99.90;;;;;;5050357;28;20032;-77
2023/09/01 01:54:16;;;;;;;80.82;37.67;;;9.60;99.90;;;;;;5046101;28;20045;-76
2023/09/01 01:56:43;;;;;;;89.63;38.28;;;9.60;99.90;;;;;;5046085;28;20047;-78
2023/09/01 01:59:10;;;;;;;88.47;38.20;;;9.60;99.90;;;;;;5051577;28;20067;-78
2023/09/01 02:01:38;;;;;;;83.88;36.55;;;9.50;99.90;;;;;;5048677;28;20067;-78
2023/09/01 02:04:05;;;;;;;86.70;37.25;;;9.50;99.90;;;;;;5058219;28;20091;-77
2023/09/01 02:06:32;;;;;;;93.03;39.55;;;9.60;99.90;;;;;;5038602;28;21512;-78
2023/09/01 02:08:59;;;;;;;101.28;36.47;;;9.60;99.90;;;;;;5050502;28;20032;-77
2023/09/01 02:11:27;;;;;;;86.97;37.72;;;9.60;99.90;;;;;;5043297;28;20510;-77
2023/09/01 02:13:54;;;;;;;81.97;35.78;;;9.50;99.90;;;;;;5045467;28;20101;-77
2023/09/01 02:16:24;;;;;;;89.55;36.25;;;9.50;99.90;;;;;;5046375;28;20045;-77
2023/09/01 02:18:50;;;;;;;86.55;36.30;;;9.50;99.90;;;;;;5045692;28;20037;-78
2023/09/01 02:21:19;;;;;;;82.75;35.83;;;9.40;99.90;;;;;;5042455;28;20032;-77
2023/09/01 02:23:47;;;;;;;80.43;34.92;;;9.60;99.90;;;;;;5047876;28;20048;-77
2023/09/01 02:26:21;;;;;;;87.90;37.13;;;9.70;99.90;;;;;;5049177;28;20067;-77
2023/09/01 02:28:48;;;;;;;88.47;37.42;;;9.70;99.90;;;;;;5050327;28;20041;-77
2023/09/01 02:31:15;;;;;;;82.28;36.38;;;9.80;99.90;;;;;;5044979;28;20044;-78
2023/09/01 02:33:43;;;;;;;89.43;37.33;;;9.60;99.90;;;;;;5043706;28;20045;-77
2023/09/01 02:36:34;;;;;;;93.03;37.83;;;9.70;99.90;;;;;;5050247;28;20640;-77
2023/09/01 02:39:04;;;;;;;91.18;37.60;;;9.70;99.90;;;;;;5048682;28;20117;-78
2023/09/01 02:41:31;;;;;;;96.97;38.15;;;9.70;99.90;;;;;;5040210;28;20575;-77
2023/09/01 02:43:58;;;;;;;108.05;41.05;;;9.70;99.90;;;;;;5048109;28;20048;-77
2023/09/01 02:46:25;;;;;;;85.22;38.92;;;9.70;99.90;;;;;;5028396;28;20749;-77
2023/09/01 02:48:51;;;;;;;100.53;38.05;;;9.60;99.90;;;;;;5049936;28;20040;-78
2023/09/01 02:51:18;;;;;;;97.13;38.75;;;9.70;99.90;;;;;;5043958;28;20603;-77
2023/09/01 02:53:46;;;;;;;96.30;40.28;;;9.80;99.90;;;;;;5053261;28;20028;-77
2023/09/01 02:56:13;;;;;;;83.78;36.97;;;9.90;99.90;;;;;;5048695;28;20064;-78
2023/09/01 02:58:39;;;;;;;93.47;38.10;;;9.90;99.90;;;;;;5040011;28;20041;-77
2023/09/01 03:01:08;;;;;;;88.72;38.35;;;9.90;99.90;;;;;;5046803;28;21057;-77
2023/09/01 03:03:40;;;;;;;86.05;39.30;;;9.70;99.90;;;;;;5046723;28;20103;-77
2023/09/01 03:06:08;;;;;;;91.47;39.05;;;9.80;99.90;;;;;;5031634;28;20048;-77
2023/09/01 03:08:37;;;;;;;84.60;38.08;;;9.80;99.90;;;;;;5045021;28;20138;-77
2023/09/01 03:11:05;;;;;;;75.00;37.78;;;9.80;99.90;;;;;;5038048;28;20052;-78
2023/09/01 03:13:32;;;;;;;124.68;43.33;;;9.70;99.90;;;;;;5046389;28;20044;-77
2023/09/01 03:15:59;;;;;;;103.68;42.22;;;9.80;99.90;;;;;;5043069;28;20053;-77
2023/09/01 03:18:26;;;;;;;99.28;40.40;;;9.80;99.90;;;;;;5041804;28;20056;-79
2023/09/01 03:20:53;;;;;;;83.10;39.72;;;9.80;99.90;;;;;;5027503;28;20074;-77
2023/09/01 03:23:21;;;;;;;74.13;37.30;;;9.80;99.90;;;;;;5041640;28;20040;-77
2023/09/01 03:25:58;;;;;;;81.63;35.70;;;9.80;99.90;;;;;;5046013;28;20044;-78
2023/09/01 03:28:25;;;;;;;84.50;36.67;;;9.70;99.90;;;;;;5026514;28;20045;-77
2023/09/01 03:30:52;;;;;;;78.82;35.88;;;9.60;99.90;;;;;;5043709;28;20093;-77
2023/09/01 03:33:21;;;;;;;75.20;35.85;;;9.40;99.90;;;;;;5039394;28;20053;-77
2023/09/01 03:35:49;;;;;;;60.97;31.42;;;9.30;99.90;;;;;;5048202;28;20041;-77
2023/09/01 03:38:18;;;;;;;66.00;34.35;;;9.20;99.90;;;;;;5039126;28;20098;-77
2023/09/01 03:40:45;;;;;;;62.88;33.55;;;9.20;99.90;;;;;;5050374;28;20525;-77
2023/09/01 03:43:12;;;;;;;78.93;35.80;;;9.20;99.90;;;;;;5043610;28;20048;-78
2023/09/01 03:45:43;;;;;;;73.80;35.97;;;9.10;99.90;;;;;;5027640;28;20589;-78
2023/09/01 03:48:10;;;;;;;81.60;36.08;;;9.00;99.90;;;;;;5042007;28;20052;-80
2023/09/01 03:50:37;;;;;;;85.00;36.25;;;9.10;99.90;;;;;;5045108;28;20044;-78
2023/09/01 03:53:04;;;;;;;85.25;37.05;;;9.20;99.90;;;;;;5044366;28;20051;-79
2023/09/01 03:55:31;;;;;;;88.75;37.33;;;9.10;99.90;;;;;;5040450;28;20047;-77
2023/09/01 03:57:57;;;;;;;91.85;37.17;;;9.10;99.90;;;;;;5044100;28;20056;-77
2023/09/01 04:00:24;;;;;;;83.85;34.60;;;9.00;99.90;;;;;;5041996;28;20052;-77
2023/09/01 04:02:51;;;;;;;56.85;32.30;;;8.90;99.90;;;;;;5048323;28;20057;-78
2023/09/01 04:05:17;;;;;;;74.82;35.05;;;8.90;99.90;;;;;;5045598;28;20043;-77
2023/09/01 04:07:44;;;;;;;81.38;35.60;;;8.90;99.90;;;;;;5030067;28;20041;-78
2023/09/01 04:10:11;;;;;;;76.57;35.80;;;8.90;99.90;;;;;;5043511;28;20106;-78
2023/09/01 04:12:38;;;;;;;64.57;33.78;;;8.80;99.90;;;;;;5045991;28;20049;-77
2023/09/01 04:15:06;;;;;;;65.85;33.60;;;8.70;99.90;;;;;;5047370;28;20060;-78
2023/09/01 04:17:34;;;;;;;93.50;35.35;;;8.70;99.90;;;;;;5042599;28;20120;-77
2023/09/01 04:20:05;;;;;;;75.60;32.38;;;8.80;99.90;;;;;;5040215;28;20106;-80
2023/09/01 04:22:32;;;;;;;63.33;30.38;;;9.00;99.90;;;;;;5042418;28;20053;-77
2023/09/01 04:24:59;;;;;;;57.17;29.38;;;9.00;99.90;;;;;;5044437;28;20045;-77
2023/09/01 04:27:26;;;;;;;56.10;30.13;;;8.90;99.90;;;;;;5046984;28;20045;-78
2023/09/01 04:29:54;;;;;;;62.20;29.45;;;8.80;99.90;;;;;;5047315;28;20040;-77
2023/09/01 04:32:36;;;;;;;71.63;32.65;;;8.90;99.90;;;;;;5048097;28;20051;-79
2023/09/01 04:35:05;;;;;;;73.07;31.27;;;9.00;99.90;;;;;;5047981;28;20135;-77
2023/09/01 04:37:35;;;;;;;65.22;31.45;;;8.80;99.90;;;;;;5031803;28;20048;-78
2023/09/01 04:40:07;;;;;;;55.70;29.00;;;8.50;99.90;;;;;;5030910;28;20419;-77
2023/09/01 04:42:34;;;;;;;44.15;27.95;;;8.40;99.90;;;;;;5046837;28;20075;-77
2023/09/01 04:45:00;;;;;;;48.40;28.23;;;8.40;99.90;;;;;;5036023;28;20051;-77
2023/09/01 04:47:27;;;;;;;57.33;30.25;;;8.40;99.90;;;;;;5045834;28;20045;-77
2023/09/01 04:49:54;;;;;;;56.53;29.60;;;8.30;99.90;;;;;;5047214;28;20041;-77
2023/09/01 04:52:22;;;;;;;57.67;29.58;;;8.30;99.90;;;;;;5052047;28;20040;-77
2023/09/01 04:55:04;;;;;;;68.47;32.58;;;8.30;99.90;;;;;;5055695;28;20553;-78
2023/09/01 04:57:31;;;;;;;50.05;30.00;;;8.40;99.90;;;;;;5030820;28;20110;-77
2023/09/01 05:00:00;;;;;;;57.80;30.95;;;8.20;99.90;;;;;;5049862;28;20044;-78
2023/09/01 05:02:27;;;;;;;56.25;32.20;;;8.20;99.90;;;;;;5038218;28;20415;-77
2023/09/01 05:04:54;;;;;;;52.83;29.73;;;8.20;99.90;;;;;;5059298;28;20044;-77
2023/09/01 05:07:21;;;;;;;57.22;29.35;;;8.10;99.90;;;;;;5044349;28;20673;-77
2023/09/01 05:09:47;;;;;;;54.70;28.95;;;8.10;99.90;;;;;;5041637;28;20057;-78
2023/09/01 05:12:14;;;;;;;55.08;29.52;;;8.10;99.90;;;;;;5047051;28;20582;-79
2023/09/01 05:14:41;;;;;;;49.10;29.33;;;8.00;99.90;;;;;;5044979;28;20094;-78
2023/09/01 05:17:08;;;;;;;56.20;30.23;;;8.00;99.90;;;;;;5044184;28;20056;-77
2023/09/01 05:19:35;;;;;;;52.15;30.38;;;8.10;99.90;;;;;;5045057;28;20052;-78
2023/09/01 05:22:02;;;;;;;47.45;29.40;;;8.30;99.90;;;;;;5045430;28;20131;-77
2023/09/01 05:24:29;;;;;;;53.65;30.55;;;8.40;99.90;;;;;;5028495;28;20052;-78
2023/09/01 05:26:56;;;;;;;56.22;28.30;;;8.40;99.90;;;;;;5049192;28;20134;-78
2023/09/01 05:29:23;;;;;;;54.47;27.40;;;8.50;99.90;;;;;;5051535;28;20056;-77
2023/09/01 05:31:49;;;;;;;51.53;29.08;;;8.50;99.90;;;;;;5060622;28;20060;-78
2023/09/01 05:34:17;;;;;;;55.90;28.70;;;8.60;99.90;;;;;;5047851;28;20072;-78
2023/09/01 05:36:44;;;;;;;57.17;28.67;;;8.70;99.90;;;;;;5038606;28;20078;-78
2023/09/01 05:39:10;;;;;;;60.03;29.35;;;8.80;99.90;;;;;;5032546;28;20102;-77
2023/09/01 05:41:37;;;;;;;63.40;31.40;;;8.90;99.90;;;;;;5043574;28;20071;-78
2023/09/01 05:44:04;;;;;;;61.33;32.47;;;9.00;99.90;;;;;;5033362;28;20045;-78
2023/09/01 05:46:32;;;;;;;65.93;33.85;;;9.10;99.90;;;;;;5040638;28;20132;-78
2023/09/01 05:48:58;;;;;;;64.20;34.53;;;9.20;99.90;;;;;;5032199;28;20057;-78
2023/09/01 05:51:25;;;;;;;64.63;31.90;;;9.30;99.90;;;;;;5048538;28;20056;-77
2023/09/01 05:53:52;;;;;;;63.13;32.45;;;9.40;99.90;;;;;;5046596;28;20063;-77
2023/09/01 05:56:19;;;;;;;60.60;32.83;;;9.60;99.90;;;;;;5047094;28;20142;-77
2023/09/01 05:58:48;;;;;;;71.00;35.00;;;9.60;99.90;;;;;;5049027;28;20056;-78
2023/09/01 06:01:18;;;;;;;69.20;33.83;;;9.80;99.90;;;;;;5045942;28;20061;-79
2023/09/01 06:03:45;;;;;;;60.28;32.55;;;9.90;99.90;;;;;;5041695;28;20138;-78
2023/09/01 06:06:11;;;;;;;54.33;30.23;;;9.90;99.90;;;;;;5046739;28;20425;-78
2023/09/01 06:08:38;;;;;;;53.00;29.92;;;9.90;99.90;;;;;;5047993;28;20052;-78
2023/09/01 06:11:08;;;;;;;51.92;30.50;;;10.00;99.90;;;;;;5048437;28;20045;-77
2023/09/01 06:13:35;;;;;;;54.03;31.23;;;10.20;99.90;;;;;;5047850;28;20048;-78
2023/09/01 06:16:05;;;;;;;47.30;31.05;;;10.30;99.90;;;;;;5049997;28;20044;-78
2023/09/01 06:18:32;;;;;;;62.67;34.05;;;10.40;99.90;;;;;;5050236;28;20526;-78
2023/09/01 06:20:59;;;;;;;50.65;31.85;;;10.70;99.90;;;;;;5048235;28;20060;-78
2023/09/01 06:23:26;;;;;;;55.95;33.50;;;10.80;99.90;;;;;;5047947;28;20687;-78
2023/09/01 06:25:52;;;;;;;52.42;34.08;;;10.90;99.90;;;;;;5048312;28;20506;-78
2023/09/01 06:28:19;;;;;;;61.63;35.63;;;11.10;99.90;;;;;;5048262;28;20489;-78
2023/09/01 06:30:46;;;;;;;62.03;35.50;;;11.20;99.90;;;;;;5048763;28;20110;-78
2023/09/01 06:33:13;;;;;;;56.20;36.60;;;11.30;99.90;;;;;;5031852;28;20054;-78
2023/09/01 06:35:40;;;;;;;57.25;36.28;;;11.50;99.90;;;;;;5048944;28;20051;-77
2023/09/01 06:38:06;;;;;;;53.35;35.35;;;11.70;99.90;;;;;;5050739;28;20513;-77
2023/09/01 06:40:33;;;;;;;50.40;35.17;;;11.90;99.90;;;;;;5047494;28;20052;-80
2023/09/01 06:43:02;;;;;;;54.40;34.83;;;12.10;99.90;;;;;;5046845;28;20063;-77
2023/09/01 06:45:29;;;;;;;53.33;32.70;;;12.20;99.90;;;;;;5044568;28;20525;-76
2023/09/01 06:47:56;;;;;;;41.35;31.05;;;12.60;99.90;;;;;;5043261;28;20052;-75
2023/09/01 06:50:23;;;;;;;35.03;28.35;;;12.60;99.90;;;;;;5042587;28;20384;-75
2023/09/01 06:52:51;;;;;;;39.42;25.75;;;12.70;99.90;;;;;;5039269;28;20411;-74
2023/09/01 06:55:17;;;;;;;26.08;22.83;;;12.90;99.90;;;;;;5041366;28;20139;-75
2023/09/01 06:57:44;;;;;;;30.98;20.88;;;12.90;99.90;;;;;;5042527;28;20666;-75
2023/09/01 07:00:12;;;;;;;21.17;18.98;;;13.00;99.90;;;;;;5040394;28;20065;-75
2023/09/01 07:02:39;;;;;;;23.08;17.63;;;13.10;99.90;;;;;;5041301;28;20552;-75
2023/09/01 07:05:06;;;;;;;16.08;14.45;;;13.20;99.90;;;;;;5028597;28;20418;-75
2023/09/01 07:07:33;;;;;;;14.80;13.30;;;13.30;99.90;;;;;;5045371;28;20380;-75
2023/09/01 07:10:00;;;;;;;12.35;11.13;;;13.40;99.90;;;;;;5041704;28;20440;-75
2023/09/01 07:12:27;;;;;;;15.80;10.77;;;13.40;99.90;;;;;;5043648;28;20063;-75
2023/09/01 07:14:53;;;;;;;11.80;10.35;;;13.40;99.90;;;;;;5045769;28;20635;-75
2023/09/01 07:17:21;;;;;;;14.18;11.38;;;13.40;99.90;;;;;;5045214;28;20588;-75
2023/09/01 07:19:48;;;;;;;15.27;10.90;;;13.40;99.90;;;;;;5044634;28;20055;-76
2023/09/01 07:22:15;;;;;;;18.08;11.43;;;13.30;99.90;;;;;;5044093;28;20143;-75
2023/09/01 07:24:42;;;;;;;15.88;10.73;;;13.40;99.90;;;;;;5037534;28;20045;-75
2023/09/01 07:27:12;;;;;;;12.32;9.43;;;13.40;99.90;;;;;;5038724;28;20052;-75
2023/09/01 07:29:39;;;;;;;14.30;9.73;;;13.50;99.90;;;;;;5039341;28;20136;-75
2023/09/01 07:32:05;;;;;;;10.50;8.50;;;13.30;99.90;;;;;;5028056;28;20121;-75
2023/09/01 07:34:33;;;;;;;16.75;10.50;;;13.40;99.90;;;;;;5047375;28;20507;-76
2023/09/01 07:37:00;;;;;;;15.40;9.00;;;13.50;99.90;;;;;;5046171;28;20597;-80
2023/09/01 07:39:30;;;;;;;8.57;7.70;;;13.60;99.90;;;;;;5039198;28;20048;-76
2023/09/01 07:41:56;;;;;;;11.20;7.40;;;13.70;99.90;;;;;;5033782;28;20067;-76
2023/09/01 07:44:24;;;;;;;8.60;6.65;;;13.90;99.90;;;;;;5032677;28;20041;-75
2023/09/01 07:46:51;;;;;;;8.30;6.07;;;14.20;99.90;;;;;;5039683;28;20087;-76
2023/09/01 07:49:18;;;;;;;8.52;5.35;;;14.70;99.90;;;;;;5047790;28;20443;-76
2023/09/01 07:51:45;;;;;;;6.95;6.30;;;14.90;99.90;;;;;;5045088;28;20123;-76
2023/09/01 07:54:11;;;;;;;8.30;7.57;;;15.10;99.90;;;;;;5032360;28;20036;-76
2023/09/01 07:56:38;;;;;;;8.55;7.75;;;15.10;99.90;;;;;;5048101;28;20430;-76
2023/09/01 07:59:05;;;;;;;9.65;8.85;;;15.10;99.90;;;;;;5037440;28;20070;-76
2023/09/01 08:01:32;;;;;;;9.43;8.65;;;14.90;99.90;;;;;;5032597;28;20047;-76
2023/09/01 08:04:02;;;;;;;9.88;9.10;;;15.20;99.90;;;;;;5048166;28;20106;-75
2023/09/01 08:06:29;;;;;;;10.90;10.00;;;15.40;99.90;;;;;;5032733;28;20138;-76
2023/09/01 08:08:57;;;;;;;11.57;10.63;;;15.40;99.90;;;;;;5046559;28;20044;-77
2023/09/01 08:11:25;;;;;;;11.95;10.93;;;15.40;99.90;;;;;;5046205;28;20064;-76
2023/09/01 08:13:52;;;;;;;10.75;9.98;;;15.40;99.90;;;;;;5045193;28;20048;-76
2023/09/01 08:16:18;;;;;;;11.60;10.63;;;15.50;99.90;;;;;;5048091;28;20052;-77
2023/09/01 08:18:45;;;;;;;13.52;12.48;;;15.70;99.90;;;;;;5049170;28;20055;-76
2023/09/01 08:21:12;;;;;;;12.90;12.10;;;15.50;99.90;;;;;;5044739;28;20041;-76
2023/09/01 08:23:40;;;;;;;13.90;13.00;;;15.50;99.90;;;;;;5034868;28;20072;-77
2023/09/01 08:26:09;;;;;;;13.98;12.98;;;15.50;99.90;;;;;;5043079;28;20510;-76
2023/09/01 08:28:36;;;;;;;13.07;12.18;;;15.50;99.90;;;;;;5052327;28;20131;-77
2023/09/01 08:31:04;;;;;;;13.80;12.90;;;15.60;99.90;;;;;;5047674;28;20505;-77
2023/09/01 08:33:32;;;;;;;14.00;13.07;;;15.50;99.90;;;;;;5050423;28;20603;-76
2023/09/01 08:36:03;;;;;;;13.55;12.75;;;15.50;99.90;;;;;;5047627;28;20059;-76
2023/09/01 08:38:31;;;;;;;15.45;14.35;;;15.50;99.90;;;;;;5047751;28;20048;-76
2023/09/01 08:41:08;;;;;;;15.70;14.40;;;15.50;99.90;;;;;;5044446;28;20110;-77
2023/09/01 08:43:38;;;;;;;14.30;13.35;;;15.50;99.90;;;;;;5050941;28;20226;-77
2023/09/01 08:46:06;;;;;;;14.43;13.35;;;15.50;99.90;;;;;;5046862;28;20094;-76
2023/09/01 08:48:35;;;;;;;15.23;14.32;;;15.60;99.90;;;;;;5047472;28;20037;-77
2023/09/01 08:51:05;;;;;;;16.25;14.98;;;15.60;99.90;;;;;;5042634;28;20127;-77
2023/09/01 08:53:33;;;;;;;15.20;13.98;;;15.60;99.90;;;;;;5048647;28;20568;-76
2023/09/01 08:56:00;;;;;;;14.68;13.38;;;15.60;99.90;;;;;;5045975;28;20329;-77
2023/09/01 08:58:27;;;;;;;13.90;13.10;;;15.50;99.90;;;;;;5031955;28;20466;-76
2023/09/01 09:00:54;;;;;;;13.27;12.35;;;15.50;99.90;;;;;;5048502;28;20040;-77
2023/09/01 09:03:21;;;;;;;14.02;12.93;;;15.60;99.90;;;;;;5049149;28;20056;-76
2023/09/01 09:05:49;;;;;;;13.70;12.80;;;15.60;99.90;;;;;;5045487;28;20059;-76
2023/09/01 09:08:17;;;;;;;14.02;12.85;;;15.70;99.90;;;;;;5046343;28;20479;-76
2023/09/01 09:10:48;;;;;;;14.48;13.27;;;15.70;99.90;;;;;;5048340;28;20319;-76
2023/09/01 09:13:29;;;;;;;15.30;14.20;;;15.80;99.90;;;;;;5049284;28;20094;-76
2023/09/01 09:16:09;;;;;;;16.10;14.95;;;15.90;99.90;;;;;;5029776;28;20044;-77
2023/09/01 09:18:38;;;;;;;15.98;14.88;;;16.00;99.90;;;;;;5050581;28;20094;-77
2023/09/01 09:21:20;;;;;;;16.10;14.88;;;15.80;99.90;;;;;;5045448;28;20045;-76
2023/09/01 09:23:48;;;;;;;15.40;14.40;;;15.70;99.90;;;;;;5050106;28;20507;-76
2023/09/01 09:26:14;;;;;;;15.65;14.55;;;15.60;99.90;;;;;;5066155;28;20411;-76
2023/09/01 09:28:43;;;;;;;15.45;14.45;;;15.80;99.90;;;;;;5047534;28;20108;-75
2023/09/01 09:31:09;;;;;;;15.40;14.38;;;15.80;99.90;;;;;;5048040;28;22580;-76
2023/09/01 09:33:38;;;;;;;16.00;14.75;;;16.00;99.90;;;;;;5050075;28;20037;-76
2023/09/01 09:36:05;;;;;;;16.25;15.35;;;16.10;99.90;;;;;;5046417;28;20037;-76
2023/09/01 09:38:42;;;;;;;14.95;13.95;;;16.10;99.90;;;;;;5033092;28;20048;-76
2023/09/01 09:41:09;;;;;;;15.63;14.63;;;16.00;99.90;;;;;;5045757;28;20072;-77
2023/09/01 09:43:46;;;;;;;15.77;14.63;;;16.10;99.90;;;;;;5033927;28;20094;-75
2023/09/01 09:46:14;;;;;;;14.38;13.57;;;16.10;99.90;;;;;;5046167;28;20098;-79
2023/09/01 09:48:42;;;;;;;14.40;13.50;;;16.10;99.90;;;;;;5047822;28;20119;-77
2023/09/01 09:51:10;;;;;;;15.57;14.48;;;16.20;99.90;;;;;;5047251;28;20040;-76
2023/09/01 09:53:38;;;;;;;15.85;14.95;;;16.20;99.90;;;;;;5049249;28;20613;-76
2023/09/01 09:56:30;;;;;;;15.05;14.23;;;16.30;99.90;;;;;;5048332;28;20036;-78
2023/09/01 09:59:05;;;;;;;15.55;14.43;;;16.50;99.90;;;;;;5053839;28;20256;-76
2023/09/01 10:01:35;;;;;;;16.83;15.82;;;16.70;99.90;;;;;;5048154;28;20123;-76
2023/09/01 10:04:06;;;;;;;17.73;16.73;;;16.80;99.90;;;;;;5047675;28;20045;-75
2023/09/01 10:06:35;;;;;;;17.00;16.10;;;16.90;99.90;;;;;;5045201;28;20040;-76
2023/09/01 10:09:07;;;;;;;17.30;16.20;;;16.90;99.90;;;;;;5046003;28;20045;-78
2023/09/01 10:11:35;;;;;;;17.35;16.17;;;17.10;99.90;;;;;;5047053;28;20329;-76
2023/09/01 10:14:03;;;;;;;18.15;17.05;;;17.30;99.90;;;;;;5043703;28;20053;-77
2023/09/01 10:16:30;;;;;;;17.88;16.85;;;17.30;99.90;;;;;;5047871;28;20114;-77
2023/09/01 10:18:59;;;;;;;18.02;17.02;;;17.20;99.90;;;;;;5043386;28;20095;-76
2023/09/01 10:21:25;;;;;;;17.38;16.40;;;17.10;99.90;;;;;;5045077;28;20060;-76
2023/09/01 10:23:53;;;;;;;17.55;16.58;;;17.10;99.90;;;;;;5049964;28;20098;-76
2023/09/01 10:26:28;;;;;;;17.55;16.58;;;17.10;99.90;;;;;;5045017;28;20048;-77
2023/09/01 10:29:01;;;;;;;18.75;17.58;;;17.30;99.90;;;;;;5049611;28;20079;-76
2023/09/01 10:31:28;;;;;;;16.92;16.02;;;17.30;99.90;;;;;;5051666;28;20036;-76
2023/09/01 10:34:08;;;;;;;18.83;17.83;;;17.50;99.90;;;;;;5051459;28;20041;-76
2023/09/01 10:36:36;;;;;;;18.00;17.10;;;17.40;99.90;;;;;;5028330;28;20329;-76
2023/09/01 10:39:18;;;;;;;17.17;16.27;;;17.40;99.90;;;;;;5024741;28;20052;-76
2023/09/01 10:41:54;;;;;;;17.30;16.30;;;17.50;99.90;;;;;;5047773;28;22437;-77
2023/09/01 10:44:21;;;;;;;18.70;17.58;;;17.60;99.90;;;;;;5062679;28;20965;-77
2023/09/01 10:46:49;;;;;;;17.90;17.00;;;17.40;99.90;;;;;;5050684;28;20041;-76
2023/09/01 10:49:16;;;;;;;18.00;17.10;;;17.40;99.90;;;;;;5044096;28;20068;-76
2023/09/01 10:51:44;;;;;;;17.83;16.85;;;17.30;99.90;;;;;;5048799;28;20032;-77
2023/09/01 10:54:14;;;;;;;17.30;16.40;;;17.30;99.90;;;;;;5047330;28;20064;-77
2023/09/01 10:56:58;;;;;;;17.70;16.50;;;17.50;99.90;;;;;;5050473;28;20044;-77
2023/09/01 10:59:32;;;;;;;18.17;17.17;;;17.50;99.90;;;;;;5047276;28;20044;-78
2023/09/01 11:02:22;;;;;;;17.53;16.63;;;17.50;99.90;;;;;;5056493;28;20048;-77
2023/09/01 11:04:50;;;;;;;16.77;15.98;;;17.40;99.90;;;;;;5052146;28;20302;-79
2023/09/01 11:07:16;;;;;;;17.05;16.10;;;17.40;99.90;;;;;;5044133;28;20136;-79
2023/09/01 11:09:48;;;;;;;15.63;14.93;;;17.40;99.90;;;;;;5047608;28;20113;-77
2023/09/01 11:12:15;;;;;;;16.83;15.93;;;17.50;99.90;;;;;;5045505;28;20530;-78
2023/09/01 11:14:56;;;;;;;16.85;16.05;;;17.60;99.90;;;;;;5034958;28;20772;-77
2023/09/01 11:17:37;;;;;;;16.80;16.00;;;17.70;99.90;;;;;;5042570;28;20106;-78
2023/09/01 11:20:09;;;;;;;17.40;16.50;;;17.70;99.90;;;;;;5030918;28;20566;-79
2023/09/01 11:22:41;;;;;;;17.05;16.15;;;17.70;99.90;;;;;;5048290;28;20567;-77
2023/09/01 11:25:11;;;;;;;16.65;15.85;;;17.60;99.90;;;;;;5013146;28;20056;-76
2023/09/01 11:27:45;;;;;;;16.60;15.70;;;17.50;99.90;;;;;;5029246;28;20047;-77
2023/09/01 11:30:13;;;;;;;16.07;15.27;;;17.60;99.90;;;;;;5039873;28;20052;-78
2023/09/01 11:32:39;;;;;;;15.90;15.10;;;17.50;99.90;;;;;;5048975;28;20106;-76
2023/09/01 11:35:09;;;;;;;15.52;14.82;;;17.30;99.90;;;;;;5006281;28;20041;-77
2023/09/01 11:37:40;;;;;;;16.10;15.25;;;17.30;99.90;;;;;;5033633;28;20529;-77
2023/09/01 11:40:09;;;;;;;16.00;15.15;;;17.40;99.90;;;;;;5029133;28;20057;-77
2023/09/01 11:42:38;;;;;;;15.70;14.95;;;17.30;99.90;;;;;;5052203;28;20037;-78
2023/09/01 11:45:10;;;;;;;15.80;15.10;;;17.40;99.90;;;;;;5030527;28;20052;-79
2023/09/01 11:47:37;;;;;;;16.30;15.50;;;17.40;99.90;;;;;;5053085;28;21277;-77
2023/09/01 11:50:05;;;;;;;15.57;14.77;;;17.40;99.90;;;;;;5054011;28;20051;-75
2023/09/01 11:52:50;;;;;;;15.15;14.45;;;17.40;99.90;;;;;;5053545;28;20647;-76
2023/09/01 11:55:34;;;;;;;15.47;14.57;;;17.40;99.90;;;;;;5040213;28;20302;-77
2023/09/01 11:58:02;;;;;;;14.60;13.80;;;17.30;99.90;;;;;;5033108;28;20048;-75
2023/09/01 12:00:32;;;;;;;15.73;14.85;;;17.20;99.90;;;;;;5051479;28;20543;-76
2023/09/01 12:02:59;;;;;;;14.35;13.43;;;17.20;99.90;;;;;;5052163;28;20051;-76
2023/09/01 12:05:31;;;;;;;13.65;12.95;;;17.00;99.90;;;;;;5037996;28;20036;-77
2023/09/01 12:08:00;;;;;;;13.10;12.45;;;17.00;99.90;;;;;;5052921;28;20044;-77
2023/09/01 12:10:27;;;;;;;13.80;13.00;;;17.00;99.90;;;;;;5045344;28;20109;-76
2023/09/01 12:13:03;;;;;;;12.90;12.30;;;17.00;99.90;;;;;;5052311;28;20037;-76
2023/09/01 12:15:30;;;;;;;13.07;12.38;;;17.00;99.90;;;;;;5052420;28;20486;-77
2023/09/01 12:17:57;;;;;;;12.98;12.30;;;17.00;99.90;;;;;;5050778;28;20052;-76
2023/09/01 12:20:24;;;;;;;13.65;12.95;;;17.00;99.90;;;;;;5043472;28;20065;-77
2023/09/01 12:22:51;;;;;;;13.60;12.80;;;16.90;99.90;;;;;;5053028;28;20495;-78
2023/09/01 12:25:18;;;;;;;12.35;11.55;;;16.80;99.90;;;;;;5033957;28;20049;-79
2023/09/01 12:27:44;;;;;;;11.00;10.40;;;16.70;99.90;;;;;;5053108;28;20273;-79
2023/09/01 12:30:11;;;;;;;11.30;10.50;;;16.70;99.90;;;;;;5047689;28;20502;-76
2023/09/01 12:32:38;;;;;;;11.20;10.57;;;16.70;99.90;;;;;;5049965;28;20040;-78
2023/09/01 12:35:06;;;;;;;11.48;10.85;;;16.80;99.90;;;;;;5054160;28;20208;-77
2023/09/01 12:37:33;;;;;;;10.50;9.90;;;16.80;99.90;;;;;;5050510;28;20071;-77
2023/09/01 12:40:00;;;;;;;10.55;9.85;;;16.70;99.90;;;;;;5050915;28;20052;-77
2023/09/01 12:42:26;;;;;;;9.63;9.02;;;16.60;99.90;;;;;;5045672;28;21409;-76